Time;durP1;ratioP1;P1;durP2;ratioP2;P2;SDS_P1;SDS_P2;PMS_P1;PMS_P2;Temp;Humidity;BMP_temperature;BMP_pressure;BME280_temperature;BME280_humidity;BME280_pressure;Samples;Min_cycle;Max_cycle;Signal;HPM_P1;HPM_P2
2021/04/12 00:01:24;;;;;;;;;1.75;1.75;;;;;15.38;44.51;98339.59;4832398;29;103389;-90
2021/04/12 00:04:06;;;;;;;;;2.50;1.00;;;;;15.37;45.03;98336.06;4815485;29;102444;-90
2021/04/12 00:06:39;;;;;;;;;2.00;1.00;;;;;15.39;44.46;98344.00;4816780;29;102301;-90
2021/04/12 00:09:09;;;;;;;;;1.25;1.25;;;;;15.39;44.30;98341.28;4798078;29;103375;-90
2021/04/12 00:11:41;;;;;;;;;1.25;1.25;;;;;15.38;44.41;98340.44;4811753;28;104111;-90
2021/04/12 00:14:18;;;;;;;;;1.00;1.00;;;;;15.37;44.52;98335.22;4829550;28;103838;-90
2021/04/12 00:16:54;;;;;;;;;2.25;2.00;;;;;15.37;44.86;98327.03;4814321;29;102249;-90
2021/04/12 00:19:38;;;;;;;;;2.00;1.00;;;;;15.36;44.50;98336.28;4799285;29;103888;-90
2021/04/12 00:22:14;;;;;;;;;1.00;1.00;;;;;15.37;44.70;98335.22;4821036;28;103534;-89
2021/04/12 00:25:12;;;;;;;;;3.00;2.00;;;;;15.36;44.87;98336.28;4814372;28;102598;-90
2021/04/12 00:27:45;;;;;;;;;1.50;1.50;;;;;15.37;44.36;98332.50;4801054;29;102149;-90
2021/04/12 00:30:23;;;;;;;;;2.00;2.00;;;;;15.37;44.25;98329.78;4800061;29;104185;-90
2021/04/12 00:32:59;;;;;;;;;1.00;1.00;;;;;15.36;44.74;98328.94;4818522;29;103504;-90
2021/04/12 00:35:33;;;;;;;;;1.00;1.00;;;;;15.35;44.22;98324.56;4800798;29;102429;-90
2021/04/12 00:38:20;;;;;;;;;0.75;0.75;;;;;15.34;44.85;98322.09;4801956;29;102079;-90
2021/04/12 00:41:05;;;;;;;;;2.00;2.00;;;;;15.34;44.60;98328.38;4819799;28;101988;-90
2021/04/12 00:43:49;;;;;;;;;1.00;1.00;;;;;15.34;44.49;98330.25;4828962;29;103363;-90
2021/04/12 00:46:44;;;;;;;;;1.00;1.00;;;;;15.34;44.63;98327.53;4813982;29;102271;-90
2021/04/12 00:49:24;;;;;;;;;1.00;1.00;;;;;15.34;44.19;98322.09;4817007;29;104063;-89
2021/04/12 00:52:32;;;;;;;;;1.00;1.00;;;;;15.33;44.52;98328.59;4813642;29;103077;-89
2021/04/12 00:55:28;;;;;;;;;1.00;1.00;;;;;15.33;44.33;98331.31;4780261;29;103281;-90
2021/04/12 00:57:59;;;;;;;;;1.25;1.25;;;;;15.32;44.60;98325.03;4774147;29;102105;-90
2021/04/12 01:00:34;;;;;;;;;2.75;2.00;;;;;15.31;44.51;98326.09;4806438;29;103688;-90
2021/04/12 01:03:03;;;;;;;;;2.00;2.00;;;;;15.31;44.75;98326.09;4817527;28;103987;-90
2021/04/12 01:05:54;;;;;;;;;2.25;2.00;;;;;15.32;44.59;98321.47;4816931;29;103364;-90
2021/04/12 01:09:06;;;;;;;;;1.00;1.00;;;;;15.30;44.38;98316.28;4821944;28;102212;-90
2021/04/12 01:12:06;;;;;;;;;1.50;1.50;;;;;15.31;44.75;98322.56;4819654;29;102148;-90
2021/04/12 01:14:56;;;;;;;;;2.50;2.00;;;;;15.30;44.61;98321.75;4837239;28;102113;-90
2021/04/12 01:17:51;;;;;;;;;1.50;1.00;;;;;15.30;44.51;98320.91;4816182;28;105409;-90
2021/04/12 01:20:48;;;;;;;;;3.00;1.00;;;;;15.29;44.30;98320.06;4809224;29;102103;-90
2021/04/12 01:23:40;;;;;;;;;3.25;2.00;;;;;15.29;44.55;98311.06;4832951;28;102573;-90
2021/04/12 01:26:28;;;;;;;;;1.00;1.00;;;;;15.30;44.56;98310.84;4834987;28;102157;-90
2021/04/12 01:28:58;;;;;;;;;2.00;2.00;;;;;15.29;44.41;98313.78;4830394;28;103416;-90
2021/04/12 01:31:36;;;;;;;;;1.00;1.00;;;;;15.29;44.27;98313.78;4834496;29;102417;-90
2021/04/12 01:34:40;;;;;;;;;1.00;0.75;;;;;15.28;44.09;98306.69;4839636;29;103890;-90
2021/04/12 01:37:19;;;;;;;;;2.00;2.00;;;;;15.28;44.78;98312.97;4818670;29;102223;-82
2021/04/12 01:40:14;;;;;;;;;2.00;1.50;;;;;15.27;44.50;98313.19;4830517;29;103423;-82
2021/04/12 01:42:47;;;;;;;;;2.00;1.00;;;;;15.27;44.30;98310.47;4823277;29;102201;-82
2021/04/12 01:45:20;;;;;;;;;1.75;1.75;;;;;15.27;44.75;98305.00;4834666;29;103194;-82
2021/04/12 01:48:27;;;;;;;;;1.25;1.25;;;;;15.27;44.74;98310.47;4834346;29;102465;-82
2021/04/12 01:51:00;;;;;;;;;1.50;1.50;;;;;15.26;44.42;98315.09;4780993;29;103861;-82
2021/04/12 01:53:59;;;;;;;;;1.00;1.00;;;;;15.26;44.80;98312.38;4835895;28;104526;-82
2021/04/12 01:56:29;;;;;;;;;1.75;1.75;;;;;15.25;44.19;98313.44;4835228;29;102486;-82
2021/04/12 01:58:59;;;;;;;;;1.00;1.00;;;;;15.25;44.48;98313.44;4836374;29;102136;-82
2021/04/12 02:01:48;;;;;;;;;1.00;1.00;;;;;15.25;44.60;98309.88;4818029;29;102430;-82
2021/04/12 02:04:20;;;;;;;;;2.50;2.00;;;;;15.25;44.81;98316.16;4802894;29;102037;-90
2021/04/12 02:07:13;;;;;;;;;1.00;1.00;;;;;15.24;44.77;98319.13;4816187;29;103281;-90
2021/04/12 02:10:01;;;;;;;;;1.00;0.00;;;;;15.24;44.47;98309.06;4834078;28;102194;-90
2021/04/12 02:12:50;;;;;;;;;1.00;1.00;;;;;15.24;44.74;98300.88;4820219;29;103719;-90
2021/04/12 02:15:41;;;;;;;;;1.00;1.00;;;;;15.24;44.94;98305.50;4824857;28;103097;-90
2021/04/12 02:18:24;;;;;;;;;1.50;1.50;;;;;15.23;44.41;98299.22;4819558;29;102144;-90
2021/04/12 02:20:56;;;;;;;;;1.00;1.00;;;;;15.23;44.69;98303.84;4815269;29;103207;-90
2021/04/12 02:23:40;;;;;;;;;1.00;1.00;;;;;15.21;44.56;98300.53;4834706;29;103790;-90
2021/04/12 02:26:39;;;;;;;;;0.25;0.25;;;;;15.23;44.49;98303.84;4818125;29;103278;-90
2021/04/12 02:29:28;;;;;;;;;1.75;1.75;;;;;15.21;44.36;98304.09;4801653;29;102830;-90
2021/04/12 02:32:24;;;;;;;;;1.00;1.00;;;;;15.21;44.71;98298.66;4803803;29;103061;-90
2021/04/12 02:35:28;;;;;;;;;1.00;1.00;;;;;15.21;44.58;98297.81;4813369;29;103406;-90
2021/04/12 02:38:26;;;;;;;;;2.00;1.00;;;;;15.21;44.15;98295.94;4833447;29;102688;-90
2021/04/12 02:41:08;;;;;;;;;1.00;1.00;;;;;15.19;44.16;98290.72;4833042;29;102188;-90
2021/04/12 02:43:53;;;;;;;;;1.50;1.00;;;;;15.19;44.67;98298.88;4818998;29;101970;-91
2021/04/12 02:46:40;;;;;;;;;1.00;1.00;;;;;15.19;44.10;98298.88;4834623;29;103309;-90
2021/04/12 02:49:18;;;;;;;;;1.00;1.00;;;;;15.19;44.70;98296.16;4821165;29;103254;-90
2021/04/12 02:52:24;;;;;;;;;1.50;1.50;;;;;15.18;44.57;98297.22;4813383;29;103664;-90
2021/04/12 02:55:18;;;;;;;;;2.00;1.00;;;;;15.18;44.52;98289.03;4830676;28;102482;-90
2021/04/12 02:58:10;;;;;;;;;1.00;1.00;;;;;15.18;44.24;98290.94;4833237;28;103386;-90
2021/04/12 03:00:58;;;;;;;;;1.00;1.00;;;;;15.17;44.23;98295.53;4817875;28;103399;-90
2021/04/12 03:03:56;;;;;;;;;1.50;1.00;;;;;15.15;44.69;98297.69;4804819;29;102161;-90
2021/04/12 03:06:54;;;;;;;;;1.00;1.00;;;;;15.15;44.69;98294.97;4828700;28;102150;-90
2021/04/12 03:09:50;;;;;;;;;0.25;0.25;;;;;15.15;44.76;98294.97;4838542;29;103525;-90
2021/04/12 03:12:38;;;;;;;;;1.00;1.00;;;;;15.14;44.25;98295.19;4817946;29;103640;-90
2021/04/12 03:15:27;;;;;;;;;1.75;1.75;;;;;15.14;44.62;98296.03;4830574;28;102549;-90
2021/04/12 03:18:15;;;;;;;;;1.00;0.50;;;;;15.14;44.54;98296.03;4835103;29;101964;-90
2021/04/12 03:21:11;;;;;;;;;1.00;1.00;;;;;15.14;44.72;98295.19;4834726;29;103811;-90
2021/04/12 03:23:40;;;;;;;;;1.00;1.00;;;;;15.12;44.49;98300.91;4817502;28;103020;-90
2021/04/12 03:26:38;;;;;;;;;1.00;1.00;;;;;15.13;44.63;98302.53;4832528;29;103212;-90
2021/04/12 03:29:22;;;;;;;;;1.00;1.00;;;;;15.12;44.08;98300.91;4819951;29;103323;-90
2021/04/12 03:32:12;;;;;;;;;1.00;0.75;;;;;15.12;44.50;98300.91;4819871;29;104482;-89
2021/04/12 03:35:00;;;;;;;;;1.25;1.00;;;;;15.12;44.57;98294.63;4820206;29;107195;-90
2021/04/12 03:37:44;;;;;;;;;1.00;1.00;;;;;15.11;44.69;98299.25;4808286;29;102316;-90
2021/04/12 03:40:25;;;;;;;;;0.25;0.25;;;;;15.10;44.32;98294.84;4836290;29;102121;-90
2021/04/12 03:43:11;;;;;;;;;1.00;1.00;;;;;15.11;44.60;98291.06;4823419;29;103739;-90
2021/04/12 03:46:12;;;;;;;;;2.50;1.25;;;;;15.11;44.47;98295.69;4828263;29;101779;-90
2021/04/12 03:49:14;;;;;;;;;2.00;1.00;;;;;15.10;44.71;98297.56;4830532;29;102209;-90
2021/04/12 03:51:59;;;;;;;;;0.75;0.00;;;;;15.09;44.08;98293.19;4827298;29;103915;-90
2021/04/12 03:54:31;;;;;;;;;1.00;1.00;;;;;15.10;44.10;98296.75;4829299;29;103576;-90
2021/04/12 03:57:26;;;;;;;;;2.00;2.00;;;;;15.09;44.50;98289.63;4830031;28;102059;-90
2021/04/12 04:00:14;;;;;;;;;1.75;1.75;;;;;15.07;44.38;98289.88;4813302;29;102838;-90
2021/04/12 04:02:50;;;;;;;;;0.50;0.50;;;;;15.09;44.69;98292.34;4817497;29;102600;-90
2021/04/12 04:05:20;;;;;;;;;1.00;1.00;;;;;15.08;44.06;98286.06;4831556;29;103924;-90
2021/04/12 04:08:08;;;;;;;;;2.00;1.50;;;;;15.08;44.20;98290.72;4834632;29;102195;-89
2021/04/12 04:10:57;;;;;;;;;2.00;2.00;;;;;15.07;44.52;98298.06;4832359;29;102573;-90
2021/04/12 04:13:38;;;;;;;;;1.50;1.00;;;;;15.08;44.68;98296.16;4815635;29;103312;-90
2021/04/12 04:16:31;;;;;;;;;2.00;2.00;;;;;15.07;44.17;98292.63;4815151;29;103418;-90
2021/04/12 04:19:28;;;;;;;;;2.00;1.75;;;;;15.06;44.58;98304.56;4815788;29;101865;-90
2021/04/12 04:22:25;;;;;;;;;1.00;1.00;;;;;15.06;44.12;98298.28;4835918;28;101925;-90
2021/04/12 04:25:29;;;;;;;;;1.25;1.00;;;;;15.06;44.62;98303.72;4838447;29;102905;-90
2021/04/12 04:28:15;;;;;;;;;2.00;2.00;;;;;15.06;43.96;98306.47;4832128;29;105054;-90
2021/04/12 04:30:49;;;;;;;;;1.25;1.25;;;;;15.05;44.52;98310.25;4831472;29;102256;-90
2021/04/12 04:33:53;;;;;;;;;1.00;1.00;;;;;15.04;44.14;98312.13;4833765;28;102154;-90
2021/04/12 04:36:24;;;;;;;;;2.00;1.75;;;;;15.06;44.51;98303.72;4839108;29;102872;-90
2021/04/12 04:39:09;;;;;;;;;1.00;1.00;;;;;15.05;44.58;98313.78;4833473;29;103382;-90
2021/04/12 04:41:55;;;;;;;;;1.00;1.00;;;;;15.05;44.38;98313.78;4838566;29;101798;-90
2021/04/12 04:44:58;;;;;;;;;1.50;1.50;;;;;15.05;44.31;98319.25;4841139;28;102261;-82
2021/04/12 04:47:40;;;;;;;;;1.00;1.00;;;;;15.04;44.18;98317.56;4838733;29;103379;-82
2021/04/12 04:50:28;;;;;;;;;1.00;1.00;;;;;15.04;43.96;98316.78;4821601;29;104883;-82
2021/04/12 04:53:19;;;;;;;;;1.00;1.00;;;;;15.04;43.85;98322.22;4836162;29;102021;-82
2021/04/12 04:56:28;;;;;;;;;1.75;1.25;;;;;15.03;44.36;98323.28;4805563;29;103196;-82
2021/04/12 04:59:04;;;;;;;;;2.25;2.00;;;;;15.04;44.56;98325.75;4825988;29;102399;-82
2021/04/12 05:01:46;;;;;;;;;1.00;1.00;;;;;15.03;44.63;98321.38;4836563;29;103706;-82
2021/04/12 05:04:36;;;;;;;;;1.00;1.00;;;;;15.03;44.00;98340.44;4820193;29;102429;-82
2021/04/12 05:07:23;;;;;;;;;0.75;0.75;;;;;15.03;44.04;98331.44;4823953;29;102885;-82
2021/04/12 05:10:01;;;;;;;;;1.50;1.00;;;;;15.03;44.14;98340.44;4822564;29;102316;-82
2021/04/12 05:13:03;;;;;;;;;3.25;2.00;;;;;15.03;44.48;98343.16;4811865;29;103412;-82
2021/04/12 05:15:41;;;;;;;;;4.00;2.00;;;;;15.02;44.42;98344.22;4812820;29;103654;-90
2021/04/12 05:18:29;;;;;;;;;1.75;1.00;;;;;15.03;44.48;98347.78;4836907;28;102596;-90
2021/04/12 05:21:16;;;;;;;;;1.75;1.75;;;;;15.02;44.16;98346.94;4837746;29;101809;-90
2021/04/12 05:24:04;;;;;;;;;1.00;1.00;;;;;15.01;44.00;98350.72;4836486;29;103299;-90
2021/04/12 05:27:08;;;;;;;;;2.00;2.00;;;;;15.03;43.69;98343.16;4838008;29;101720;-90
2021/04/12 05:30:10;;;;;;;;;2.25;1.25;;;;;15.02;44.50;98346.13;4839323;29;101721;-90
2021/04/12 05:33:14;;;;;;;;;3.00;2.00;;;;;15.02;44.22;98351.56;4809493;28;102470;-90
2021/04/12 05:36:08;;;;;;;;;2.25;2.25;;;;;15.01;44.28;98352.63;4819799;29;103626;-90
2021/04/12 05:38:53;;;;;;;;;3.00;3.00;;;;;15.02;43.88;98348.84;4818537;29;102086;-90
2021/04/12 05:41:47;;;;;;;;;1.00;1.00;;;;;15.02;44.16;98344.22;4836871;29;101767;-90
2021/04/12 05:44:36;;;;;;;;;3.00;2.00;;;;;15.02;44.20;98348.84;4820738;29;103078;-90
2021/04/12 05:47:11;;;;;;;;;2.75;2.00;;;;;15.02;44.15;98346.13;4835904;29;103685;-90
2021/04/12 05:49:50;;;;;;;;;2.25;2.00;;;;;15.02;44.06;98344.22;4833612;29;103306;-90
2021/04/12 05:52:17;;;;;;;;;2.00;2.00;;;;;15.02;44.29;98349.69;4838094;29;102203;-90
2021/04/12 05:55:06;;;;;;;;;2.25;2.25;;;;;15.01;43.88;98355.34;4837517;29;101857;-90
2021/04/12 05:58:04;;;;;;;;;3.00;1.00;;;;;15.01;43.89;98350.72;4820109;29;103315;-90
2021/04/12 06:00:33;;;;;;;;;1.00;1.00;;;;;15.02;43.81;98351.56;4838111;29;102138;-90
2021/04/12 06:03:36;;;;;;;;;1.00;1.00;;;;;15.02;43.91;98352.41;4837958;29;102200;-90
2021/04/12 06:06:36;;;;;;;;;2.00;1.75;;;;;15.03;44.01;98353.22;4805848;29;102216;-90
2021/04/12 06:09:40;;;;;;;;;3.50;2.75;;;;;15.03;43.78;98359.50;4833571;29;103395;-90
2021/04/12 06:12:29;;;;;;;;;1.75;1.75;;;;;15.04;43.94;98355.69;4837891;28;102175;-90
2021/04/12 06:15:01;;;;;;;;;3.50;3.00;;;;;15.03;44.17;98353.22;4835646;29;102119;-90
2021/04/12 06:17:37;;;;;;;;;2.00;2.00;;;;;15.03;43.99;98353.22;4821428;29;103607;-90
2021/04/12 06:20:32;;;;;;;;;2.25;2.25;;;;;15.04;44.10;98360.34;4835353;29;103666;-91
2021/04/12 06:23:34;;;;;;;;;2.75;2.00;;;;;15.03;44.28;98356.78;4836118;29;102747;-90
2021/04/12 06:26:16;;;;;;;;;2.00;2.00;;;;;15.03;44.11;98362.22;4834812;29;101996;-90
2021/04/12 06:28:53;;;;;;;;;2.00;2.00;;;;;15.04;44.14;98360.34;4839202;28;102204;-90
2021/04/12 06:31:41;;;;;;;;;2.00;2.00;;;;;15.04;43.75;98372.03;4834058;29;103425;-91
2021/04/12 06:34:20;;;;;;;;;3.00;3.00;;;;;15.04;44.16;98360.34;4837946;29;102890;-90
2021/04/12 06:37:08;;;;;;;;;3.00;3.00;;;;;15.04;44.51;98357.63;4838000;29;103354;-91
2021/04/12 06:39:57;;;;;;;;;2.25;1.50;;;;;15.05;44.28;98361.97;4836371;29;101858;-90
2021/04/12 06:43:01;;;;;;;;;1.00;1.00;;;;;15.04;44.25;98366.59;4815398;29;103913;-90
2021/04/12 06:45:33;;;;;;;;;2.00;2.00;;;;;15.05;44.00;98372.88;4835273;29;102774;-90
2021/04/12 06:48:11;;;;;;;;;2.00;1.00;;;;;15.04;43.82;98372.03;4836275;29;101970;-90
2021/04/12 06:50:37;;;;;;;;;2.25;2.25;;;;;15.05;44.28;98367.41;4817880;29;102469;-90
2021/04/12 06:53:30;;;;;;;;;2.50;2.00;;;;;15.05;43.94;98359.25;4834888;29;103459;-90
2021/04/12 06:55:58;;;;;;;;;2.50;2.00;;;;;15.05;43.81;98360.09;4815292;29;103076;-90
2021/04/12 06:58:37;;;;;;;;;2.50;2.00;;;;;15.06;44.01;98367.19;4830738;29;102029;-90
2021/04/12 07:01:31;;;;;;;;;2.75;2.75;;;;;15.07;44.08;98359.84;4831762;29;102235;-90
2021/04/12 07:04:19;;;;;;;;;2.75;2.00;;;;;15.07;43.88;98370.75;4835118;29;103431;-90
2021/04/12 07:07:23;;;;;;;;;2.00;1.00;;;;;15.08;44.25;98372.41;4835362;29;102102;-90
2021/04/12 07:10:14;;;;;;;;;2.75;2.00;;;;;15.08;44.16;98365.06;4831490;29;102603;-90
2021/04/12 07:13:03;;;;;;;;;2.00;2.00;;;;;15.08;43.76;98370.50;4833317;29;102171;-90
2021/04/12 07:15:39;;;;;;;;;3.00;1.50;;;;;15.09;44.27;98374.88;4833832;29;103578;-82
2021/04/12 07:18:37;;;;;;;;;2.00;2.00;;;;;15.10;44.22;98379.28;4835981;29;102255;-82
2021/04/12 07:21:28;;;;;;;;;1.75;1.75;;;;;15.11;43.99;98374.66;4815142;29;102077;-82
2021/04/12 07:24:13;;;;;;;;;3.00;2.00;;;;;15.10;44.16;98376.56;4832398;29;102108;-82
2021/04/12 07:27:17;;;;;;;;;2.75;2.75;;;;;15.11;43.67;98385.56;4835523;29;103422;-82
2021/04/12 07:29:50;;;;;;;;;3.00;3.00;;;;;15.12;43.94;98382.59;4836956;29;102172;-82
2021/04/12 07:32:42;;;;;;;;;2.75;2.75;;;;;15.13;44.04;98384.25;4833310;29;102071;-82
2021/04/12 07:35:33;;;;;;;;;1.00;1.00;;;;;15.13;43.88;98386.13;4833325;29;103636;-82
2021/04/12 07:38:38;;;;;;;;;2.00;2.00;;;;;15.13;43.75;98386.97;4818893;29;103144;-82
2021/04/12 07:41:24;;;;;;;;;2.00;1.50;;;;;15.15;43.92;98389.47;4835011;29;103571;-83
2021/04/12 07:44:29;;;;;;;;;2.50;2.00;;;;;15.18;43.58;98394.44;4831710;29;102600;-82
2021/04/12 07:47:29;;;;;;;;;3.00;2.00;;;;;15.17;44.16;98395.53;4832882;29;101907;-82
2021/04/12 07:50:10;;;;;;;;;2.25;2.25;;;;;15.17;43.85;98393.59;4833274;29;103862;-82
2021/04/12 07:53:15;;;;;;;;;2.50;2.00;;;;;15.17;43.88;98387.34;4836827;29;102100;-82
2021/04/12 07:56:20;;;;;;;;;2.50;2.50;;;;;15.21;43.86;98387.69;4834843;29;102158;-82
2021/04/12 07:59:20;;;;;;;;;3.00;3.00;;;;;15.21;43.85;98395.88;4750118;29;102352;-82
2021/04/12 08:01:46;;;;;;;;;2.00;1.25;;;;;15.21;43.77;98390.44;4831637;28;103543;-82
2021/04/12 08:04:51;;;;;;;;;2.00;2.00;;;;;15.22;43.79;98383.91;4832364;29;102039;-82
2021/04/12 08:08:14;;;;;;;;;1.00;1.00;;;;;15.23;43.61;98391.84;4832942;29;101866;-82
2021/04/12 08:10:43;;;;;;;;;2.00;1.00;;;;;15.25;43.79;98394.34;4822126;29;102538;-82
2021/04/12 08:13:34;;;;;;;;;1.25;1.25;;;;;15.25;43.85;98389.72;4831871;29;103504;-82
2021/04/12 08:16:15;;;;;;;;;1.75;1.75;;;;;15.26;43.80;98402.28;4832238;29;102113;-90
2021/04/12 08:19:07;;;;;;;;;2.00;2.00;;;;;15.27;44.08;98400.34;4815787;29;102272;-90
2021/04/12 08:22:07;;;;;;;;;2.00;2.00;;;;;15.28;43.85;98407.47;4816294;29;102060;-90
2021/04/12 08:25:01;;;;;;;;;2.25;2.00;;;;;15.29;43.75;98414.59;4833425;28;103457;-90
2021/04/12 08:28:06;;;;;;;;;1.50;1.50;;;;;15.29;43.95;98412.69;4810953;29;102018;-91
2021/04/12 08:30:51;;;;;;;;;2.00;2.00;;;;;15.30;43.88;98414.34;4806988;29;102419;-90
2021/04/12 08:33:36;;;;;;;;;3.00;1.25;;;;;15.31;43.58;98424.16;4836148;28;101849;-90
2021/04/12 08:36:39;;;;;;;;;3.50;3.00;;;;;15.32;43.44;98433.16;4831942;28;103782;-90
2021/04/12 08:39:45;;;;;;;;;3.75;2.00;;;;;15.32;43.75;98425.00;4832353;29;102075;-90
2021/04/12 08:42:30;;;;;;;;;1.25;1.25;;;;;15.33;43.73;98423.94;4831486;29;102253;-90
2021/04/12 08:45:13;;;;;;;;;2.50;2.00;;;;;15.33;43.27;98418.50;4835948;29;102288;-82
2021/04/12 08:48:17;;;;;;;;;1.50;1.50;;;;;15.34;43.70;98418.25;4830795;29;104255;-82
2021/04/12 08:51:17;;;;;;;;;2.75;2.00;;;;;15.34;43.75;98418.25;4830588;29;102171;-82
2021/04/12 08:54:02;;;;;;;;;1.00;1.00;;;;;15.35;43.74;98416.38;4832808;29;104897;-82
2021/04/12 08:56:47;;;;;;;;;2.00;2.00;;;;;15.36;43.80;98423.47;4835231;29;102117;-82
2021/04/12 08:59:51;;;;;;;;;2.00;2.00;;;;;15.36;43.80;98412.56;4831617;29;102967;-82
2021/04/12 09:02:36;;;;;;;;;1.50;1.00;;;;;15.37;43.43;98409.59;4816641;29;102253;-82
2021/04/12 09:05:30;;;;;;;;;3.00;2.00;;;;;15.38;43.75;98416.72;4832540;29;102212;-82
2021/04/12 09:08:16;;;;;;;;;3.00;2.00;;;;;15.40;43.31;98413.78;4814293;29;102089;-82
2021/04/12 09:10:46;;;;;;;;;2.00;2.00;;;;;15.40;43.61;98414.56;4837244;28;103405;-82
2021/04/12 09:13:31;;;;;;;;;1.50;1.50;;;;;15.41;43.66;98418.13;4800182;29;101921;-82
2021/04/12 09:16:12;;;;;;;;;1.00;1.00;;;;;15.42;43.54;98412.47;4829358;29;102111;-90
2021/04/12 09:18:56;;;;;;;;;2.00;1.00;;;;;15.43;43.33;98418.75;4816167;29;102206;-91
2021/04/12 09:21:39;;;;;;;;;2.00;2.00;;;;;15.44;43.94;98420.41;4831563;28;103628;-90
2021/04/12 09:24:35;;;;;;;;;1.50;1.50;;;;;15.44;43.75;98410.34;4814907;29;102208;-91
2021/04/12 09:27:39;;;;;;;;;1.25;1.25;;;;;15.46;43.73;98418.25;4838374;29;103524;-90
2021/04/12 09:30:18;;;;;;;;;2.00;1.75;;;;;15.47;43.61;98419.91;4842352;28;102638;-91
2021/04/12 09:32:51;;;;;;;;;2.00;1.00;;;;;15.47;43.70;98412.59;4833929;29;103247;-90
2021/04/12 09:35:50;;;;;;;;;2.50;2.00;;;;;15.48;43.68;98416.97;4817105;29;101804;-90
2021/04/12 09:38:39;;;;;;;;;1.00;1.00;;;;;15.50;43.75;98424.88;4821666;29;103214;-90
2021/04/12 09:41:35;;;;;;;;;1.00;1.00;;;;;15.51;43.55;98426.59;4837419;29;102830;-90
2021/04/12 09:44:40;;;;;;;;;3.00;2.00;;;;;15.53;43.57;98421.75;4818371;29;103839;-91
2021/04/12 09:47:18;;;;;;;;;1.50;1.00;;;;;15.53;43.68;98419.03;4834252;28;101851;-91
2021/04/12 09:50:19;;;;;;;;;2.00;2.00;;;;;15.54;43.33;98420.66;4833985;29;102093;-91
2021/04/12 09:53:07;;;;;;;;;1.75;1.00;;;;;15.54;43.36;98421.50;4824284;29;102231;-91
2021/04/12 09:55:38;;;;;;;;;1.00;1.00;;;;;15.55;43.35;98438.66;4822189;28;103800;-91
2021/04/12 09:58:24;;;;;;;;;2.00;1.00;;;;;15.55;43.47;98438.66;4835763;29;102092;-90
2021/04/12 10:01:00;;;;;;;;;2.50;1.75;;;;;15.56;43.67;98435.72;4817614;29;103504;-91
2021/04/12 10:03:52;;;;;;;;;2.00;2.00;;;;;15.57;43.79;98428.38;4837571;29;102392;-91
2021/04/12 10:06:40;;;;;;;;;1.00;1.00;;;;;15.58;43.65;98421.84;4819515;29;105141;-90
2021/04/12 10:09:28;;;;;;;;;2.00;1.00;;;;;15.59;43.34;98426.22;4835480;29;102227;-90
2021/04/12 10:12:23;;;;;;;;;1.50;1.50;;;;;15.59;43.91;98423.50;4836207;29;101716;-91
2021/04/12 10:15:05;;;;;;;;;1.00;1.00;;;;;15.60;43.48;98419.72;4807824;29;102214;-90
2021/04/12 10:18:13;;;;;;;;;1.50;1.50;;;;;15.61;43.44;98418.66;4818272;29;103981;-90
2021/04/12 10:21:01;;;;;;;;;1.50;1.50;;;;;15.61;43.29;98427.66;4802351;29;102321;-91
2021/04/12 10:23:28;;;;;;;;;1.00;1.00;;;;;15.62;43.45;98417.59;4821361;29;102307;-91
2021/04/12 10:26:01;;;;;;;;;1.75;1.25;;;;;15.63;43.74;98425.50;4819681;29;102416;-91
2021/04/12 10:28:38;;;;;;;;;1.00;1.00;;;;;15.63;43.40;98421.97;4833973;29;103735;-90
2021/04/12 10:31:07;;;;;;;;;2.75;2.00;;;;;15.63;43.44;98425.50;4839240;29;102171;-91
2021/04/12 10:33:45;;;;;;;;;1.25;1.25;;;;;15.65;43.27;98429.91;4816302;29;102458;-90
2021/04/12 10:36:44;;;;;;;;;1.25;1.00;;;;;15.65;43.56;98428.00;4799878;29;102547;-91
2021/04/12 10:39:26;;;;;;;;;1.00;1.00;;;;;15.66;43.50;98431.56;4816969;29;103678;-90
2021/04/12 10:41:58;;;;;;;;;0.50;0.50;;;;;15.67;43.56;98430.50;4821621;29;102277;-90
2021/04/12 10:44:45;;;;;;;;;1.00;1.00;;;;;15.67;43.51;98434.03;4799109;28;102245;-91
2021/04/12 10:47:34;;;;;;;;;2.00;1.00;;;;;15.68;43.34;98426.69;4812685;29;102197;-91
2021/04/12 10:50:15;;;;;;;;;1.00;1.00;;;;;15.69;43.40;98429.19;4817490;29;104152;-91
2021/04/12 10:52:58;;;;;;;;;1.00;1.00;;;;;15.70;43.22;98435.47;4818951;29;103047;-91
2021/04/12 10:55:27;;;;;;;;;2.00;2.00;;;;;15.70;43.33;98436.31;4815490;29;102349;-90
2021/04/12 10:58:15;;;;;;;;;1.00;1.00;;;;;15.71;43.39;98432.53;4836094;29;102172;-90
2021/04/12 11:01:08;;;;;;;;;2.00;2.00;;;;;15.72;43.21;98439.59;4838646;29;103399;-90
2021/04/12 11:03:47;;;;;;;;;1.50;1.50;;;;;15.72;43.39;98428.72;4833101;29;103339;-90
2021/04/12 11:06:35;;;;;;;;;1.75;1.00;;;;;15.74;43.41;98429.31;4831555;29;102276;-90
2021/04/12 11:09:14;;;;;;;;;4.00;2.00;;;;;15.74;43.49;98426.59;4836198;29;101921;-91
2021/04/12 11:12:04;;;;;;;;;0.50;0.50;;;;;15.75;43.53;98422.78;4835164;29;103530;-91
2021/04/12 11:14:33;;;;;;;;;1.00;1.00;;;;;15.75;43.55;98428.25;4819279;29;102201;-89
2021/04/12 11:17:15;;;;;;;;;1.00;1.00;;;;;15.76;43.34;98423.63;4800252;29;102371;-90
2021/04/12 11:19:58;;;;;;;;;2.00;1.00;;;;;15.77;43.61;98438.91;4836928;29;101818;-91
2021/04/12 11:22:57;;;;;;;;;1.00;1.00;;;;;15.76;43.62;98440.78;4817713;29;103430;-90
2021/04/12 11:25:36;;;;;;;;;1.00;0.50;;;;;15.75;43.62;98444.59;4820276;28;102510;-91
2021/04/12 11:28:08;;;;;;;;;1.00;1.00;;;;;15.77;43.13;98447.91;4816865;29;103592;-90
2021/04/12 11:31:01;;;;;;;;;1.00;1.00;;;;;15.77;43.26;98447.06;4820141;29;102189;-90
2021/04/12 11:33:55;;;;;;;;;1.00;1.00;;;;;15.78;43.24;98454.19;4834772;29;103796;-90
2021/04/12 11:36:31;;;;;;;;;2.00;2.00;;;;;15.77;43.44;98453.34;4832773;29;101973;-91
2021/04/12 11:39:06;;;;;;;;;1.00;1.00;;;;;15.78;43.63;98449.56;4835736;29;101860;-91
2021/04/12 11:41:46;;;;;;;;;1.00;1.00;;;;;15.77;43.49;98450.63;4835745;29;103208;-90
2021/04/12 11:44:37;;;;;;;;;1.75;1.00;;;;;15.79;43.22;98453.13;4831882;29;103505;-90
2021/04/12 11:47:05;;;;;;;;;0.75;0.75;;;;;15.78;43.25;98452.31;4820687;29;101890;-91
2021/04/12 11:49:58;;;;;;;;;0.50;0.50;;;;;15.78;42.98;98455.03;4837668;29;102765;-91
2021/04/12 11:52:28;;;;;;;;;1.00;1.00;;;;;15.80;43.55;98457.53;4825910;29;102110;-91
2021/04/12 11:55:07;;;;;;;;;1.25;1.00;;;;;15.79;43.29;98456.69;4815692;29;103421;-91
2021/04/12 11:58:02;;;;;;;;;1.00;1.00;;;;;15.80;43.44;98457.53;4818863;29;103266;-91
2021/04/12 12:00:34;;;;;;;;;1.00;1.00;;;;;15.80;43.41;98457.53;4818528;29;102255;-90
2021/04/12 12:03:42;;;;;;;;;1.00;1.00;;;;;15.80;43.58;98458.34;4803216;29;101836;-90
2021/04/12 12:06:33;;;;;;;;;0.25;0.25;;;;;15.80;43.40;98460.25;4825212;28;103866;-91
2021/04/12 12:09:23;;;;;;;;;1.25;0.50;;;;;15.79;43.45;98459.41;4833450;29;106975;-90
2021/04/12 12:12:27;;;;;;;;;1.00;1.00;;;;;15.80;43.37;98472.00;4819188;29;102240;-91
2021/04/12 12:15:02;;;;;;;;;1.00;1.00;;;;;15.80;43.54;98463.81;4834869;29;102106;-82
2021/04/12 12:17:43;;;;;;;;;2.00;1.00;;;;;15.82;43.39;98464.38;4802756;29;103340;-82
2021/04/12 12:20:22;;;;;;;;;1.25;1.25;;;;;15.80;43.54;98460.25;4818174;29;102123;-82
2021/04/12 12:23:03;;;;;;;;;1.00;1.00;;;;;15.80;43.51;98458.34;4833791;29;102275;-82
2021/04/12 12:25:37;;;;;;;;;1.00;1.00;;;;;15.82;43.44;98469.00;4816598;29;101861;-82
2021/04/12 12:28:19;;;;;;;;;0.00;0.00;;;;;15.82;43.32;98469.84;4802895;29;103735;-82
2021/04/12 12:30:51;;;;;;;;;0.50;0.50;;;;;15.82;43.59;98469.84;4834859;29;102256;-82
2021/04/12 12:33:33;;;;;;;;;2.00;2.00;;;;;15.84;43.41;98464.16;4831675;29;102056;-82
2021/04/12 12:36:09;;;;;;;;;0.00;0.00;;;;;15.85;43.39;98461.19;4800524;29;101999;-82
2021/04/12 12:39:03;;;;;;;;;1.00;1.00;;;;;15.86;43.49;98473.75;4817182;29;103520;-82
2021/04/12 12:41:33;;;;;;;;;0.75;0.75;;;;;15.87;43.83;98469.97;4832701;29;101987;-82
2021/04/12 12:44:04;;;;;;;;;0.25;0.00;;;;;15.86;43.37;98467.47;4801077;29;102514;-82
2021/04/12 12:46:32;;;;;;;;;1.00;1.00;;;;;15.87;43.00;98480.88;4818728;29;102106;-91
2021/04/12 12:49:21;;;;;;;;;1.00;1.00;;;;;15.87;43.63;98477.31;4800345;29;103206;-91
2021/04/12 12:51:53;;;;;;;;;1.00;0.75;;;;;15.82;43.49;98469.84;4812416;29;102200;-91
2021/04/12 12:54:24;;;;;;;;;1.00;0.50;;;;;15.88;43.40;98482.53;4817064;29;101865;-91